PWSweather.com
Personal Weather Stations
Station Observations
WATERF01
WaterfordIE

WaterfordIE

Lat: 52.2412507, Lon: -7.1414691

Elevation: 65

Station Type: Davis Vantage Vue

www.waterfordweather.com

High Low Average
Temperature 65.3°F18.5°C 48.8°F9.3°C 60.2°F15.7°C
Dew Point 63.4°F17.4°C 44.8°F7.1°C 57.1°F13.9°C
Winds 13.8 mph 22.2 kmh Calm Calm 5.0 mph S8.0 kmh S
Wind Gusts 19.6 mph31.5 kmh -- 8.0 mph12.9 kmh
Humidity 99% 84% 90%
Pressure 30.14 in1020.7 mb 29.75 in1007.5 mb -
Precipitation 0.40 in10.2 mm - -
Hour Temp Dew Point Humidity Winds Wind Gusts Pressure Precip Precip Rate Daily Precip Total
12:00 AM 51.5°F10.8°C 47.1°F8.4°C 85% Calm Calm -- 30.14 in1020.7 mb - 0.00 in0.0 mm 0.00 in0.0 mm
12:10 AM 51.2°F10.7°C 46.8°F8.2°C 85% Calm Calm -- 30.14 in1020.7 mb - 0.00 in0.0 mm 0.00 in0.0 mm
12:20 AM 51.3°F10.7°C 46.9°F8.3°C 85% Calm Calm -- 30.14 in1020.7 mb - 0.00 in0.0 mm 0.00 in0.0 mm
12:30 AM 51.1°F10.6°C 46.7°F8.2°C 85% Calm Calm -- 30.14 in1020.7 mb - 0.00 in0.0 mm 0.00 in0.0 mm
12:40 AM 50.8°F10.4°C 46.5°F8.1°C 85% Calm Calm -- 30.14 in1020.7 mb - 0.00 in0.0 mm 0.00 in0.0 mm
12:50 AM 50.4°F10.2°C 46.1°F7.8°C 85% Calm Calm -- 30.14 in1020.7 mb - 0.00 in0.0 mm 0.00 in0.0 mm
01:00 AM 50.3°F10.2°C 46.3°F7.9°C 86% Calm Calm -- 30.13 in1020.3 mb - 0.00 in0.0 mm 0.00 in0.0 mm
01:10 AM 49.9°F9.9°C 45.9°F7.7°C 86% Calm Calm -- 30.13 in1020.3 mb - 0.00 in0.0 mm 0.00 in0.0 mm
01:20 AM 49.8°F9.9°C 45.8°F7.7°C 86% Calm Calm -- 30.13 in1020.3 mb - 0.00 in0.0 mm 0.00 in0.0 mm
01:30 AM 49.6°F9.8°C 45.6°F7.6°C 86% Calm Calm -- 30.13 in1020.3 mb - 0.00 in0.0 mm 0.00 in0.0 mm
01:40 AM 49.3°F9.6°C 45.3°F7.4°C 86% Calm Calm -- 30.12 in1020.0 mb - 0.00 in0.0 mm 0.00 in0.0 mm
01:50 AM 48.8°F9.3°C 44.8°F7.1°C 86% Calm Calm -- 30.12 in1020.0 mb - 0.00 in0.0 mm 0.00 in0.0 mm
02:00 AM 49.0°F9.4°C 45.0°F7.2°C 86% Calm Calm -- 30.12 in1020.0 mb - 0.00 in0.0 mm 0.00 in0.0 mm
02:10 AM 49.1°F9.5°C 45.1°F7.3°C 86% Calm Calm -- 30.12 in1020.0 mb - 0.00 in0.0 mm 0.00 in0.0 mm
02:20 AM 48.9°F9.4°C 44.9°F7.2°C 86% Calm Calm -- 30.11 in1019.6 mb - 0.00 in0.0 mm 0.00 in0.0 mm
02:30 AM 49.0°F9.4°C 45.0°F7.2°C 86% Calm Calm -- 30.11 in1019.6 mb - 0.00 in0.0 mm 0.00 in0.0 mm
02:40 AM 49.2°F9.6°C 45.2°F7.3°C 86% Calm Calm -- 30.11 in1019.6 mb - 0.00 in0.0 mm 0.00 in0.0 mm
02:50 AM 49.3°F9.6°C 45.6°F7.6°C 87% Calm Calm -- 30.11 in1019.6 mb - 0.00 in0.0 mm 0.00 in0.0 mm
03:00 AM 49.5°F9.7°C 45.8°F7.7°C 87% Calm Calm -- 30.11 in1019.6 mb - 0.00 in0.0 mm 0.00 in0.0 mm
03:10 AM 49.3°F9.6°C 45.6°F7.6°C 87% Calm Calm -- 30.10 in1019.3 mb - 0.00 in0.0 mm 0.00 in0.0 mm
03:20 AM 49.3°F9.6°C 45.6°F7.6°C 87% Calm Calm -- 30.10 in1019.3 mb - 0.00 in0.0 mm 0.00 in0.0 mm
03:30 AM 49.2°F9.6°C 45.5°F7.5°C 87% Calm Calm -- 30.10 in1019.3 mb - 0.00 in0.0 mm 0.00 in0.0 mm
03:40 AM 49.7°F9.8°C 46.0°F7.8°C 87% Calm Calm -- 30.10 in1019.3 mb - 0.00 in0.0 mm 0.00 in0.0 mm
03:50 AM 50.3°F10.2°C 46.6°F8.1°C 87% Calm Calm -- 30.09 in1019.0 mb - 0.00 in0.0 mm 0.00 in0.0 mm
04:00 AM 50.9°F10.5°C 47.2°F8.4°C 87% Calm Calm -- 30.09 in1019.0 mb - 0.00 in0.0 mm 0.00 in0.0 mm
04:10 AM 51.4°F10.8°C 47.7°F8.7°C 87% Calm Calm -- 30.09 in1019.0 mb - 0.00 in0.0 mm 0.00 in0.0 mm
04:20 AM 52.2°F11.2°C 48.4°F9.1°C 87% Calm Calm -- 30.09 in1019.0 mb - 0.00 in0.0 mm 0.00 in0.0 mm
04:30 AM 53.0°F11.7°C 49.2°F9.6°C 87% Calm Calm -- 30.08 in1018.6 mb - 0.00 in0.0 mm 0.00 in0.0 mm
04:40 AM 53.4°F11.9°C 49.6°F9.8°C 87% Calm Calm -- 30.08 in1018.6 mb - 0.00 in0.0 mm 0.00 in0.0 mm
04:50 AM 54.0°F12.2°C 50.2°F10.1°C 87% Calm Calm -- 30.08 in1018.6 mb - 0.00 in0.0 mm 0.00 in0.0 mm
05:00 AM 54.6°F12.6°C 50.8°F10.4°C 87% Calm Calm -- 30.08 in1018.6 mb - 0.00 in0.0 mm 0.00 in0.0 mm
05:10 AM 54.9°F12.7°C 51.1°F10.6°C 87% Calm Calm -- 30.08 in1018.6 mb - 0.00 in0.0 mm 0.00 in0.0 mm
05:20 AM 55.4°F13.0°C 51.9°F11.1°C 88% 1.2 mph E1.9 kmh E 2.3 mph3.7 kmh 30.07 in1018.3 mb - 0.02 in0.5 mm 0.02 in0.5 mm
05:30 AM 55.9°F13.3°C 52.4°F11.3°C 88% 1.2 mph E1.9 kmh E 2.3 mph3.7 kmh 30.07 in1018.3 mb - 0.02 in0.5 mm 0.02 in0.5 mm
05:40 AM 56.1°F13.4°C 52.6°F11.4°C 88% Calm Calm 2.3 mph3.7 kmh 30.07 in1018.3 mb - 0.03 in0.8 mm 0.03 in0.8 mm
05:50 AM 56.4°F13.6°C 52.9°F11.6°C 88% 2.3 mph E3.7 kmh E 4.6 mph7.4 kmh 30.07 in1018.3 mb - 0.04 in1.0 mm 0.04 in1.0 mm
06:00 AM 57.1°F13.9°C 53.6°F12.0°C 88% 2.3 mph ESE3.7 kmh ESE 4.6 mph7.4 kmh 30.06 in1017.9 mb - 0.04 in1.0 mm 0.04 in1.0 mm
06:10 AM 58.1°F14.5°C 54.9°F12.7°C 89% 3.5 mph SE5.6 kmh SE 5.8 mph9.3 kmh 30.06 in1017.9 mb - 0.05 in1.3 mm 0.05 in1.3 mm
06:20 AM 58.7°F14.8°C 55.5°F13.1°C 89% 6.9 mph SE11.1 kmh SE 9.2 mph14.8 kmh 30.06 in1017.9 mb - 0.04 in1.0 mm 0.05 in1.3 mm
06:30 AM 59.1°F15.1°C 55.9°F13.3°C 89% 8.1 mph SE13.0 kmh SE 13.8 mph22.2 kmh 30.05 in1017.6 mb - 0.03 in0.8 mm 0.06 in1.5 mm
06:40 AM 59.3°F15.2°C 56.1°F13.4°C 89% 9.2 mph SE14.8 kmh SE 12.7 mph20.4 kmh 30.05 in1017.6 mb - 0.02 in0.5 mm 0.06 in1.5 mm
06:50 AM 59.5°F15.3°C 56.2°F13.4°C 89% 6.9 mph SE11.1 kmh SE 11.5 mph18.5 kmh 30.05 in1017.6 mb - 0.02 in0.5 mm 0.06 in1.5 mm
07:00 AM 59.6°F15.3°C 56.4°F13.6°C 89% 9.2 mph SE14.8 kmh SE 12.7 mph20.4 kmh 30.04 in1017.3 mb - 0.02 in0.5 mm 0.06 in1.5 mm
07:10 AM 59.8°F15.4°C 56.6°F13.7°C 89% 9.2 mph SE14.8 kmh SE 12.7 mph20.4 kmh 30.04 in1017.3 mb - 0.03 in0.8 mm 0.08 in2.0 mm
07:20 AM 60.1°F15.6°C 56.9°F13.8°C 89% 11.5 mph SE18.5 kmh SE 13.8 mph22.2 kmh 30.03 in1016.9 mb - 0.05 in1.3 mm 0.09 in2.3 mm
07:30 AM 60.4°F15.8°C 57.1°F13.9°C 89% 10.4 mph SE16.7 kmh SE 16.1 mph25.9 kmh 30.03 in1016.9 mb - 0.06 in1.5 mm 0.10 in2.5 mm
07:40 AM 60.6°F15.9°C 57.3°F14.1°C 89% 9.2 mph SE14.8 kmh SE 12.7 mph20.4 kmh 30.03 in1016.9 mb - 0.05 in1.3 mm 0.10 in2.5 mm
07:50 AM 60.7°F15.9°C 57.4°F14.1°C 89% 10.4 mph SSE16.7 kmh SSE 12.7 mph20.4 kmh 30.03 in1016.9 mb - 0.05 in1.3 mm 0.10 in2.5 mm
08:00 AM 60.9°F16.1°C 57.6°F14.2°C 89% 10.4 mph SE16.7 kmh SE 13.8 mph22.2 kmh 30.02 in1016.6 mb - 0.05 in1.3 mm 0.11 in2.8 mm
08:10 AM 60.9°F16.1°C 57.6°F14.2°C 89% 11.5 mph SE18.5 kmh SE 15.0 mph24.1 kmh 30.02 in1016.6 mb - 0.04 in1.0 mm 0.12 in3.0 mm
08:20 AM 61.0°F16.1°C 57.7°F14.3°C 89% 12.7 mph SSE20.4 kmh SSE 19.6 mph31.5 kmh 30.02 in1016.6 mb - 0.03 in0.8 mm 0.12 in3.0 mm
08:30 AM 61.1°F16.2°C 57.8°F14.3°C 89% 11.5 mph SSE18.5 kmh SSE 16.1 mph25.9 kmh 30.01 in1016.3 mb - 0.02 in0.5 mm 0.12 in3.0 mm
08:40 AM 61.3°F16.3°C 58.0°F14.4°C 89% 8.1 mph SSE13.0 kmh SSE 12.7 mph20.4 kmh 30.01 in1016.3 mb - 0.02 in0.5 mm 0.12 in3.0 mm
08:50 AM 61.6°F16.4°C 58.3°F14.6°C 89% 10.4 mph SSE16.7 kmh SSE 15.0 mph24.1 kmh 30.00 in1015.9 mb - 0.02 in0.5 mm 0.13 in3.3 mm
09:00 AM 61.9°F16.6°C 58.6°F14.8°C 89% 10.4 mph SSE16.7 kmh SSE 13.8 mph22.2 kmh 30.00 in1015.9 mb - 0.02 in0.5 mm 0.13 in3.3 mm
09:10 AM 62.2°F16.8°C 58.9°F14.9°C 89% 11.5 mph S18.5 kmh S 16.1 mph25.9 kmh 30.00 in1015.9 mb - 0.01 in0.3 mm 0.13 in3.3 mm
09:20 AM 62.4°F16.9°C 59.1°F15.1°C 89% 10.4 mph S16.7 kmh S 13.8 mph22.2 kmh 29.99 in1015.6 mb - 0.01 in0.3 mm 0.13 in3.3 mm
09:30 AM 62.6°F17.0°C 59.3°F15.2°C 89% 9.2 mph S14.8 kmh S 15.0 mph24.1 kmh 29.99 in1015.6 mb - 0.01 in0.3 mm 0.13 in3.3 mm
09:40 AM 62.8°F17.1°C 59.5°F15.3°C 89% 10.4 mph S16.7 kmh S 15.0 mph24.1 kmh 29.98 in1015.2 mb - 0.02 in0.5 mm 0.13 in3.3 mm
09:50 AM 62.8°F17.1°C 59.5°F15.3°C 89% 10.4 mph SSE16.7 kmh SSE 16.1 mph25.9 kmh 29.98 in1015.2 mb - 0.01 in0.3 mm 0.13 in3.3 mm
10:00 AM 63.0°F17.2°C 59.7°F15.4°C 89% 12.7 mph SSE20.4 kmh SSE 18.4 mph29.6 kmh 29.98 in1015.2 mb - 0.01 in0.3 mm 0.13 in3.3 mm
10:10 AM 63.2°F17.3°C 59.9°F15.5°C 89% 12.7 mph SSE20.4 kmh SSE 18.4 mph29.6 kmh 29.97 in1014.9 mb - 0.01 in0.3 mm 0.13 in3.3 mm
10:20 AM 63.2°F17.3°C 59.9°F15.5°C 89% 9.2 mph S14.8 kmh S 13.8 mph22.2 kmh 29.97 in1014.9 mb - 0.01 in0.3 mm 0.13 in3.3 mm
10:30 AM 63.2°F17.3°C 59.9°F15.5°C 89% 9.2 mph S14.8 kmh S 15.0 mph24.1 kmh 29.96 in1014.6 mb - 0.02 in0.5 mm 0.14 in3.6 mm
10:40 AM 63.5°F17.5°C 60.2°F15.7°C 89% 10.4 mph S16.7 kmh S 13.8 mph22.2 kmh 29.95 in1014.2 mb - 0.02 in0.5 mm 0.15 in3.8 mm
10:50 AM 63.5°F17.5°C 60.2°F15.7°C 89% 8.1 mph S13.0 kmh S 15.0 mph24.1 kmh 29.95 in1014.2 mb - 0.02 in0.5 mm 0.16 in4.1 mm
11:00 AM 63.6°F17.6°C 60.3°F15.7°C 89% 9.2 mph S14.8 kmh S 15.0 mph24.1 kmh 29.95 in1014.2 mb - 0.04 in1.0 mm 0.17 in4.3 mm
11:10 AM 63.8°F17.7°C 60.5°F15.8°C 89% 6.9 mph SSW11.1 kmh SSW 11.5 mph18.5 kmh 29.95 in1014.2 mb - 0.05 in1.3 mm 0.18 in4.6 mm
11:20 AM 64.1°F17.8°C 60.8°F16.0°C 89% 8.1 mph SSW13.0 kmh SSW 13.8 mph22.2 kmh 29.94 in1013.9 mb - 0.05 in1.3 mm 0.18 in4.6 mm
11:30 AM 64.3°F17.9°C 61.0°F16.1°C 89% 8.1 mph SW13.0 kmh SW 12.7 mph20.4 kmh 29.94 in1013.9 mb - 0.05 in1.3 mm 0.19 in4.8 mm
11:40 AM 64.6°F18.1°C 61.3°F16.3°C 89% 9.2 mph SW14.8 kmh SW 13.8 mph22.2 kmh 29.94 in1013.9 mb - 0.04 in1.0 mm 0.19 in4.8 mm
11:50 AM 64.8°F18.2°C 61.5°F16.4°C 89% 13.8 mph S22.2 kmh S 16.1 mph25.9 kmh 29.93 in1013.5 mb - 0.04 in1.0 mm 0.20 in5.1 mm
12:00 PM 64.7°F18.2°C 61.4°F16.3°C 89% 11.5 mph SW18.5 kmh SW 13.8 mph22.2 kmh 29.93 in1013.5 mb - 0.02 in0.5 mm 0.20 in5.1 mm
12:10 PM 64.5°F18.1°C 61.2°F16.2°C 89% 12.7 mph SSW20.4 kmh SSW 13.8 mph22.2 kmh 29.93 in1013.5 mb - 0.02 in0.5 mm 0.20 in5.1 mm
12:20 PM 64.6°F18.1°C 61.3°F16.3°C 89% 10.4 mph SSW16.7 kmh SSW 13.8 mph22.2 kmh 29.92 in1013.2 mb - 0.02 in0.5 mm 0.21 in5.3 mm
12:30 PM 64.4°F18.0°C 61.1°F16.2°C 89% 8.1 mph SW13.0 kmh SW 11.5 mph18.5 kmh 29.92 in1013.2 mb - 0.02 in0.5 mm 0.21 in5.3 mm
12:40 PM 64.3°F17.9°C 61.0°F16.1°C 89% 9.2 mph SSW14.8 kmh SSW 13.8 mph22.2 kmh 29.92 in1013.2 mb - 0.02 in0.5 mm 0.21 in5.3 mm
12:50 PM 64.3°F17.9°C 61.0°F16.1°C 89% 9.2 mph SSW14.8 kmh SSW 15.0 mph24.1 kmh 29.91 in1012.9 mb - 0.02 in0.5 mm 0.21 in5.3 mm
01:00 PM 64.4°F18.0°C 61.1°F16.2°C 89% 9.2 mph SW14.8 kmh SW 13.8 mph22.2 kmh 29.91 in1012.9 mb - 0.02 in0.5 mm 0.21 in5.3 mm
01:10 PM 64.5°F18.1°C 61.2°F16.2°C 89% 8.1 mph SSW13.0 kmh SSW 12.7 mph20.4 kmh 29.91 in1012.9 mb - 0.02 in0.5 mm 0.21 in5.3 mm
01:20 PM 65.0°F18.3°C 62.0°F16.7°C 90% 8.1 mph SW13.0 kmh SW 11.5 mph18.5 kmh 29.90 in1012.5 mb - 0.02 in0.5 mm 0.22 in5.6 mm
01:30 PM 65.1°F18.4°C 62.1°F16.7°C 90% 8.1 mph SW13.0 kmh SW 11.5 mph18.5 kmh 29.90 in1012.5 mb - 0.02 in0.5 mm 0.22 in5.6 mm
01:40 PM 64.9°F18.3°C 61.6°F16.4°C 89% 8.1 mph SW13.0 kmh SW 11.5 mph18.5 kmh 29.90 in1012.5 mb - 0.02 in0.5 mm 0.22 in5.6 mm
01:50 PM 64.7°F18.2°C 61.4°F16.3°C 89% 8.1 mph SSW13.0 kmh SSW 13.8 mph22.2 kmh 29.89 in1012.2 mb - 0.01 in0.3 mm 0.22 in5.6 mm
02:00 PM 64.4°F18.0°C 61.1°F16.2°C 89% 11.5 mph SSW18.5 kmh SSW 13.8 mph22.2 kmh 29.89 in1012.2 mb - 0.01 in0.3 mm 0.22 in5.6 mm
02:10 PM 64.5°F18.1°C 61.2°F16.2°C 89% 5.8 mph SW9.3 kmh SW 11.5 mph18.5 kmh 29.89 in1012.2 mb - 0.01 in0.3 mm 0.22 in5.6 mm
02:20 PM 64.8°F18.2°C 61.8°F16.6°C 90% 5.8 mph SW9.3 kmh SW 8.1 mph13.0 kmh 29.89 in1012.2 mb - 0.00 in0.0 mm 0.22 in5.6 mm
02:30 PM 64.9°F18.3°C 61.9°F16.6°C 90% 5.8 mph SSW9.3 kmh SSW 8.1 mph13.0 kmh 29.88 in1011.9 mb - 0.01 in0.3 mm 0.23 in5.8 mm
02:40 PM 64.8°F18.2°C 61.8°F16.6°C 90% 9.2 mph WSW14.8 kmh WSW 13.8 mph22.2 kmh 29.88 in1011.9 mb - 0.01 in0.3 mm 0.23 in5.8 mm
02:50 PM 65.2°F18.4°C 62.1°F16.7°C 90% 6.9 mph SW11.1 kmh SW 12.7 mph20.4 kmh 29.87 in1011.5 mb - 0.01 in0.3 mm 0.23 in5.8 mm
03:00 PM 65.3°F18.5°C 62.3°F16.8°C 90% 6.9 mph WSW11.1 kmh WSW 11.5 mph18.5 kmh 29.88 in1011.9 mb - 0.01 in0.3 mm 0.23 in5.8 mm
03:10 PM 65.0°F18.3°C 62.0°F16.7°C 90% 5.8 mph W9.3 kmh W 9.2 mph14.8 kmh 29.87 in1011.5 mb - 0.01 in0.3 mm 0.23 in5.8 mm
03:20 PM 64.9°F18.3°C 61.9°F16.6°C 90% 5.8 mph WNW9.3 kmh WNW 11.5 mph18.5 kmh 29.87 in1011.5 mb - 0.01 in0.3 mm 0.23 in5.8 mm
03:30 PM 65.0°F18.3°C 62.0°F16.7°C 90% 9.2 mph SW14.8 kmh SW 13.8 mph22.2 kmh 29.86 in1011.2 mb - 0.01 in0.3 mm 0.23 in5.8 mm
03:40 PM 64.9°F18.3°C 61.9°F16.6°C 90% 6.9 mph SW11.1 kmh SW 11.5 mph18.5 kmh 29.86 in1011.2 mb - 0.01 in0.3 mm 0.24 in6.1 mm
03:50 PM 64.7°F18.2°C 61.7°F16.5°C 90% 6.9 mph WSW11.1 kmh WSW 9.2 mph14.8 kmh 29.86 in1011.2 mb - 0.04 in1.0 mm 0.27 in6.9 mm
04:00 PM 64.5°F18.1°C 61.5°F16.4°C 90% 4.6 mph WSW7.4 kmh WSW 6.9 mph11.1 kmh 29.86 in1011.2 mb - 0.05 in1.3 mm 0.28 in7.1 mm
04:10 PM 64.4°F18.0°C 61.4°F16.3°C 90% 6.9 mph SSW11.1 kmh SSW 12.7 mph20.4 kmh 29.85 in1010.8 mb - 0.06 in1.5 mm 0.28 in7.1 mm
04:20 PM 64.3°F17.9°C 61.3°F16.3°C 90% 8.1 mph SW13.0 kmh SW 11.5 mph18.5 kmh 29.85 in1010.8 mb - 0.06 in1.5 mm 0.29 in7.4 mm
04:30 PM 64.5°F18.1°C 61.5°F16.4°C 90% 8.1 mph WSW13.0 kmh WSW 16.1 mph25.9 kmh 29.85 in1010.8 mb - 0.07 in1.8 mm 0.30 in7.6 mm
04:40 PM 64.6°F18.1°C 61.6°F16.4°C 90% 5.8 mph WSW9.3 kmh WSW 11.5 mph18.5 kmh 29.85 in1010.8 mb - 0.06 in1.5 mm 0.30 in7.6 mm
04:50 PM 64.6°F18.1°C 61.6°F16.4°C 90% 5.8 mph WSW9.3 kmh WSW 8.1 mph13.0 kmh 29.85 in1010.8 mb - 0.03 in0.8 mm 0.30 in7.6 mm
05:00 PM 64.5°F18.1°C 61.5°F16.4°C 90% 5.8 mph SW9.3 kmh SW 11.5 mph18.5 kmh 29.84 in1010.5 mb - 0.02 in0.5 mm 0.30 in7.6 mm
05:10 PM 64.4°F18.0°C 61.4°F16.3°C 90% 4.6 mph SW7.4 kmh SW 9.2 mph14.8 kmh 29.84 in1010.5 mb - 0.02 in0.5 mm 0.31 in7.9 mm
05:20 PM 64.3°F17.9°C 61.3°F16.3°C 90% 4.6 mph SW7.4 kmh SW 6.9 mph11.1 kmh 29.83 in1010.2 mb - 0.02 in0.5 mm 0.31 in7.9 mm
05:30 PM 64.0°F17.8°C 61.0°F16.1°C 90% 4.6 mph SW7.4 kmh SW 6.9 mph11.1 kmh 29.83 in1010.2 mb - 0.02 in0.5 mm 0.32 in8.1 mm
05:40 PM 64.0°F17.8°C 61.0°F16.1°C 90% 6.9 mph SSW11.1 kmh SSW 8.1 mph13.0 kmh 29.83 in1010.2 mb - 0.02 in0.5 mm 0.32 in8.1 mm
05:50 PM 63.6°F17.6°C 60.6°F15.9°C 90% 9.2 mph S14.8 kmh S 11.5 mph18.5 kmh 29.82 in1009.8 mb - 0.02 in0.5 mm 0.32 in8.1 mm
06:00 PM 63.6°F17.6°C 60.6°F15.9°C 90% 6.9 mph SW11.1 kmh SW 9.2 mph14.8 kmh 29.82 in1009.8 mb - 0.02 in0.5 mm 0.32 in8.1 mm
06:10 PM 63.7°F17.6°C 60.7°F15.9°C 90% 8.1 mph SW13.0 kmh SW 11.5 mph18.5 kmh 29.82 in1009.8 mb - 0.02 in0.5 mm 0.33 in8.4 mm
06:20 PM 63.6°F17.6°C 60.6°F15.9°C 90% 6.9 mph SSW11.1 kmh SSW 11.5 mph18.5 kmh 29.82 in1009.8 mb - 0.03 in0.8 mm 0.34 in8.6 mm
06:30 PM 63.6°F17.6°C 60.6°F15.9°C 90% 6.9 mph SW11.1 kmh SW 9.2 mph14.8 kmh 29.82 in1009.8 mb - 0.02 in0.5 mm 0.34 in8.6 mm
06:40 PM 63.8°F17.7°C 60.8°F16.0°C 90% 5.8 mph SW9.3 kmh SW 8.1 mph13.0 kmh 29.82 in1009.8 mb - 0.03 in0.8 mm 0.35 in8.9 mm
06:50 PM 63.9°F17.7°C 60.9°F16.1°C 90% 6.9 mph SW11.1 kmh SW 12.7 mph20.4 kmh 29.81 in1009.5 mb - 0.03 in0.8 mm 0.35 in8.9 mm
07:00 PM 64.0°F17.8°C 61.0°F16.1°C 90% 8.1 mph SW13.0 kmh SW 12.7 mph20.4 kmh 29.81 in1009.5 mb - 0.02 in0.5 mm 0.35 in8.9 mm
07:10 PM 64.0°F17.8°C 61.0°F16.1°C 90% 8.1 mph SW13.0 kmh SW 13.8 mph22.2 kmh 29.81 in1009.5 mb - 0.02 in0.5 mm 0.35 in8.9 mm
07:20 PM 64.0°F17.8°C 61.0°F16.1°C 90% 5.8 mph SW9.3 kmh SW 11.5 mph18.5 kmh 29.80 in1009.1 mb - 0.02 in0.5 mm 0.36 in9.1 mm
07:30 PM 63.9°F17.7°C 60.9°F16.1°C 90% 6.9 mph SSW11.1 kmh SSW 11.5 mph18.5 kmh 29.80 in1009.1 mb - 0.02 in0.5 mm 0.36 in9.1 mm
07:40 PM 63.9°F17.7°C 60.9°F16.1°C 90% 5.8 mph WSW9.3 kmh WSW 8.1 mph13.0 kmh 29.80 in1009.1 mb - 0.02 in0.5 mm 0.36 in9.1 mm
07:50 PM 64.0°F17.8°C 61.0°F16.1°C 90% 6.9 mph WSW11.1 kmh WSW 13.8 mph22.2 kmh 29.80 in1009.1 mb - 0.02 in0.5 mm 0.36 in9.1 mm
08:00 PM 63.9°F17.7°C 60.9°F16.1°C 90% 6.9 mph W11.1 kmh W 11.5 mph18.5 kmh 29.80 in1009.1 mb - 0.02 in0.5 mm 0.37 in9.4 mm
08:20 PM 63.9°F17.7°C 60.9°F16.1°C 90% 2.3 mph SW3.7 kmh SW 5.8 mph9.3 kmh 29.80 in1009.1 mb - 0.02 in0.5 mm 0.37 in9.4 mm
08:30 PM 63.9°F17.7°C 60.9°F16.1°C 90% 3.5 mph W5.6 kmh W 3.5 mph5.6 kmh 29.80 in1009.1 mb - 0.02 in0.5 mm 0.38 in9.7 mm
08:40 PM 63.9°F17.7°C 60.9°F16.1°C 90% 2.3 mph W3.7 kmh W 5.8 mph9.3 kmh 29.79 in1008.8 mb - 0.02 in0.5 mm 0.38 in9.7 mm
08:50 PM 63.9°F17.7°C 60.9°F16.1°C 90% 2.3 mph SW3.7 kmh SW 5.8 mph9.3 kmh 29.80 in1009.1 mb - 0.02 in0.5 mm 0.38 in9.7 mm
09:00 PM 63.9°F17.7°C 60.9°F16.1°C 90% 3.5 mph WSW5.6 kmh WSW 8.1 mph13.0 kmh 29.79 in1008.8 mb - 0.02 in0.5 mm 0.38 in9.7 mm
09:10 PM 63.8°F17.7°C 60.8°F16.0°C 90% 3.5 mph WSW5.6 kmh WSW 8.1 mph13.0 kmh 29.79 in1008.8 mb - 0.01 in0.3 mm 0.38 in9.7 mm
09:20 PM 63.8°F17.7°C 60.8°F16.0°C 90% 3.5 mph WSW5.6 kmh WSW 5.8 mph9.3 kmh 29.78 in1008.5 mb - 0.02 in0.5 mm 0.39 in9.9 mm
09:30 PM 63.7°F17.6°C 63.4°F17.4°C 99% 3.5 mph N5.6 kmh N 5.8 mph9.3 kmh 29.78 in1008.5 mb - 0.01 in0.3 mm 0.39 in9.9 mm
09:40 PM 63.6°F17.6°C 63.0°F17.2°C 98% 2.3 mph W3.7 kmh W 3.5 mph5.6 kmh 29.78 in1008.5 mb - 0.01 in0.3 mm 0.39 in9.9 mm
09:50 PM 63.6°F17.6°C 63.3°F17.4°C 99% 2.3 mph SW3.7 kmh SW 4.6 mph7.4 kmh 29.78 in1008.5 mb - 0.01 in0.3 mm 0.39 in9.9 mm
10:00 PM 63.5°F17.5°C 63.2°F17.3°C 99% 2.3 mph SW3.7 kmh SW 3.5 mph5.6 kmh 29.78 in1008.5 mb - 0.01 in0.3 mm 0.39 in9.9 mm
10:10 PM 63.5°F17.5°C 63.2°F17.3°C 99% 3.5 mph WSW5.6 kmh WSW 3.5 mph5.6 kmh 29.78 in1008.5 mb - 0.01 in0.3 mm 0.39 in9.9 mm
10:20 PM 63.4°F17.4°C 63.2°F17.3°C 99% 2.3 mph NW3.7 kmh NW 4.6 mph7.4 kmh 29.78 in1008.5 mb - 0.01 in0.3 mm 0.39 in9.9 mm
10:30 PM 63.4°F17.4°C 62.8°F17.1°C 98% Calm Calm 3.5 mph5.6 kmh 29.78 in1008.5 mb - 0.01 in0.3 mm 0.39 in9.9 mm
10:40 PM 63.4°F17.4°C 62.8°F17.1°C 98% 1.2 mph W1.9 kmh W 3.5 mph5.6 kmh 29.77 in1008.1 mb - 0.01 in0.3 mm 0.39 in9.9 mm
10:50 PM 63.3°F17.4°C 62.4°F16.9°C 97% 1.2 mph SW1.9 kmh SW 3.5 mph5.6 kmh 29.77 in1008.1 mb - 0.02 in0.5 mm 0.40 in10.2 mm
11:00 PM 63.3°F17.4°C 62.4°F16.9°C 97% Calm Calm 2.3 mph3.7 kmh 29.76 in1007.8 mb - 0.02 in0.5 mm 2.55 in64.8 mm
11:10 PM 63.3°F17.4°C 62.4°F16.9°C 97% 1.2 mph W1.9 kmh W 3.5 mph5.6 kmh 29.76 in1007.8 mb - 0.02 in0.5 mm 2.57 in65.3 mm
11:20 PM 63.3°F17.4°C 62.4°F16.9°C 97% 1.2 mph NW1.9 kmh NW 2.3 mph3.7 kmh 29.76 in1007.8 mb - 0.01 in0.3 mm 2.58 in65.5 mm
11:30 PM 63.2°F17.3°C 62.3°F16.8°C 97% 1.2 mph WSW1.9 kmh WSW 2.3 mph3.7 kmh 29.75 in1007.5 mb - 0.01 in0.3 mm 2.59 in65.8 mm
11:40 PM 63.2°F17.3°C 62.3°F16.8°C 97% Calm Calm -- 29.75 in1007.5 mb - 0.01 in0.3 mm 2.60 in66.0 mm
11:50 PM 63.1°F17.3°C 62.2°F16.8°C 97% Calm Calm -- 29.75 in1007.5 mb - 0.00 in0.0 mm 2.60 in66.0 mm